Flight Track Log - Related Links

Times and Time Zones

All times are in EST time to prevent confusion due to time zone crossing. See the PDT4155 flight status page for this flight to view local times or setup timezone preferences in your user account.

Time Position Orientation Groundspeed Altitude Reporting Facility
EST Latitude Longitude Course Direction KTS MPH feet Rate Location/Type
Thu 07:03:00 AM 42.0317 -75.9218 180° South  Level Estimated
Thu 07:04:00 AM 41.9862 -75.9237 182° South  Level FlightAware Approximate
Thu 07:05:00 AM 41.9408 -75.9255 182° South  Level FlightAware Approximate
Thu 07:06:00 AM 41.8953 -75.9274 182° South  Level FlightAware Approximate
Thu 07:07:00 AM 41.8513 -75.9120 154° Southeast  Level Estimated
Thu 07:08:00 AM 41.8073 -75.8966 160° South  Level Estimated
Thu 07:09:00 AM 41.7622 -75.8888 173° South  Level FlightAware Approximate
Thu 07:10:00 AM 41.7182 -75.8733 159° South  Level Estimated
Thu 07:11:00 AM 41.6741 -75.8585 166° South  Level FlightAware Approximate
Thu 07:12:00 AM 41.6300 -75.8436 166° South  Level FlightAware Approximate
Thu 07:13:00 AM 41.5860 -75.8281 153° Southeast  Level Estimated
Thu 07:14:00 AM 41.5421 -75.8127 161° South  Level Estimated
Thu 07:15:00 AM 41.4992 -75.7924 161° South  Level FlightAware Approximate
Thu 07:16:00 AM 41.4563 -75.7722 161° South  Level FlightAware Approximate
Thu 07:17:00 AM 41.4134 -75.7521 161° South  Level FlightAware Approximate
Thu 07:18:00 AM 41.3705 -75.7320 161° South  Level FlightAware Approximate
Thu 07:19:00 AM 41.3264 -75.7172 162° South  Level Estimated
Thu 07:20:00 AM 41.2835 -75.6973 161° South  Level FlightAware Approximate
Thu 07:21:00 AM 41.2405 -75.6774 161° South  Level FlightAware Approximate
Thu 07:22:00 AM 41.1976 -75.6576 161° South  Level FlightAware Approximate
Thu 07:23:00 AM 41.1546 -75.6377 161° South  Level FlightAware Approximate
Thu 07:24:00 AM 41.1116 -75.6180 161° South  Level FlightAware Approximate
Thu 07:24:23 AM 40.7333 -75.4667 161° South 248 285 8,000  Level Philadelphia TRACON
Thu 07:24:59 AM 40.7000 -75.4500 159° South 236 272 7,600 -882 Descending Philadelphia TRACON
Thu 07:25:00 AM 41.0673 -75.6042 159° South  Level Estimated
Thu 07:26:00 AM 41.0120 -75.5871 163° South  Level Estimated
Thu 07:26:05 AM 40.6333 -75.4833 201° Southwest 219 252 6,500  Level Philadelphia TRACON
Thu 07:27:00 AM 40.9584 -75.5621 161° South  Level FlightAware Approximate
Thu 07:27:05 AM 40.5667 -75.4833 180° South 246 283 5,500  Level Philadelphia TRACON
Thu 07:28:00 AM 40.9047 -75.5372 161° South  Level FlightAware Approximate
Thu 07:28:11 AM 40.5000 -75.4333 150° Southeast 244 281 5,000  Level Philadelphia TRACON
Thu 07:29:00 AM 40.8511 -75.5123 161° South  Level FlightAware Approximate
Thu 07:29:05 AM 40.4500 -75.4000 153° Southeast 238 274 5,000  Level Philadelphia TRACON
Thu 07:30:05 AM 40.3833 -75.3667 159° South 232 267 5,000  Level Philadelphia TRACON
Thu 07:31:05 AM 40.3333 -75.3333 153° Southeast 223 257 5,000 -261 Level Philadelphia TRACON
Thu 07:32:00 AM 40.2833 -75.3000 153° Southeast 237 273 4,500 -500 Descending Philadelphia TRACON
Thu 07:33:05 AM 40.2167 -75.2667 159° South 244 281 4,000 -240 Descending Philadelphia TRACON
Thu 07:34:05 AM 40.1500 -75.2333 159° South 231 266 4,000  Level Philadelphia TRACON
Thu 07:35:06 AM 40.1000 -75.1833 143° Southeast 250 288 4,000 -52 Level Philadelphia TRACON
Thu 07:36:00 AM 40.0500 -75.1333 143° Southeast 219 252 3,900 -550 Descending Philadelphia TRACON
Thu 07:37:06 AM 39.9833 -75.1000 159° South 222 255 2,900 -952 Descending Philadelphia TRACON
Thu 07:38:06 AM 39.9500 -75.1000 180° South 160 184 1,900 -789 Descending Philadelphia TRACON
Thu 07:39:00 AM 39.9167 -75.1333 217° Southwest 129 148 1,400 -474 Descending Philadelphia TRACON
Thu 07:40:00 AM 39.9000 -75.1667 237° Southwest 111 128 1,000 -571 Descending Philadelphia TRACON
Thu 07:41:06 AM 39.8833 -75.2000 237° Southwest 104 120 200 -727 Descending Philadelphia TRACON

Login

Don't have an account? Register now (free) for customized features, flight alerts, and more!